Sturgeon Bay, WI

9:59 AM CST on December 27, 2014 (GMT -0600)
Austin Straubel International | Change Station
CLOSE
Current Station
Airport
Location: Green Bay,
Elevation: 686 ft
Nearby Weather Stations

Elev 686 ft 44.48 °N, 88.14 °W | Updated 6 minutes ago

Rain
Rain
35 °F
Feels Like 30 °F
N
6
Wind Variable Wind from WNW

Today
High -- | Low -- °F
--% Chance of Precip.
Yesterday
High -- | Low -- °F
Precip. -- in
7:26 AM 4:15 PM
Waxing Crescent, 37% visible
Pressure 29.84 in
Visibility 6.0 miles
Clouds Overcast 600 ft
Windchill 30 °F
Dew Point 35 °F
Humidity 100%
Rainfall 0.20 in
Snow Depth Not available.
UV 0 out of 12
Pollen .10 out of 12
Air Quality Not available.
Flu Activity Not available.
METAR KGRB 271553Z 29005KT 6SM BR OVC006 02/02 A2982 RMK AO2 RAE38B39E40UPB38E39 SLP105 P0010 T00170017

More Conditions Fewer Conditions

Pressure 29.84 in
Visibility 6.0 miles
Clouds Overcast 600 ft
Windchill 30 °F
Dew Point 35 °F
Humidity 100%
Rainfall 0.20 in
Snow Depth Not available.
UV 0 out of 12
Pollen .10 out of 12
Air Quality Not available.
Flu Activity Not available.
METAR KGRB 271553Z 29005KT 6SM BR OVC006 02/02 A2982 RMK AO2 RAE38B39E40UPB38E39 SLP105 P0010 T00170017

More Conditions Fewer Conditions

10-Day Weather Forecast

Almanac

Astronomy

Dec. 27, 2014 Rise Set
Actual Time
Civil Twilight
Nautical Twilight
Astronomical Twilight
Moon
Length of Visible Light
Length of Day
Tomorrow will be .
, % of the Moon is Illuminated

Today's Extremes

State Highs State Lows

Community

WunderPhotos

Upload Photos

1,780,935 photos uploaded!

WunderBlogs® & News

Nearby

Air Quality

  Air Quality AQ Index Pollutant
Not available.

Snow Depth

Station Depth Elevation

Earthquake Activity

City Distance Mag. Time & Date
Minimum magnitude displayed is 2.5.

Coastal Water Temperatures

Place Temperature

Nearby Weather Stations